Live Feeds - 6,940
Total Listeners - 30,393
Top Listeners - Geneva, St. Charles, Ba... (426)
 
Browse Feeds Top Feeds New Feeds Official Feeds Alert Feeds Archives

Sultan Abdul Aziz Shah Airport (SZB) - Live Aviation ATC


  
Malaysia > Countrywide

Listen Feed Genre Listeners Player Selection Links Status
 Sultan Abdul Aziz Shah Airport (SZB)

ATC airband communication between commercial airplanes in Malaysia
Aviation
0     Online

       
 


Details for SZB

SZB current weather (METAR)

Links and Resources for SZB


Feed Notes

http://rodyeo.dyndns.org/

ICAO: WMSA

IATA: SZB

Airport: Sultan Abdul Aziz Shah Airport

City: Subang

Country: Malaysia

Continent: Asia

WMSA METAR Weather: WMSA 050700Z 33004KT 280V050 9999 SCT018 33/23 Q1009 WMSA Flight Activity (FlightAware)

Facility Frequency

Lumpur Approach 119.450

Lumpur Director 124.200

Subang Clearance Delivery 126.000

Subang Ground 121.900

Subang Tower 118.200

http://rodyeo.dyndns.org:8000/WMSA